Time;durP1;ratioP1;P1;durP2;ratioP2;P2;SDS_P1;SDS_P2;PMS_P1;PMS_P2;Temp;Humidity;BMP_temperature;BMP_pressure;BME280_temperature;BME280_humidity;BME280_pressure;Samples;Min_cycle;Max_cycle;Signal;HPM_P1;HPM_P2
2022/10/26 00:02:08;;;;;;;4.30;1.85;;;;;;;16.61;55.11;99683.50;4882311;29;20029;-95
2022/10/26 00:04:34;;;;;;;4.57;2.17;;;;;;;16.62;55.65;99690.56;4891275;29;20067;-95
2022/10/26 00:07:00;;;;;;;4.30;2.22;;;;;;;16.57;55.10;99694.16;4890755;29;20036;-95
2022/10/26 00:09:27;;;;;;;5.15;2.50;;;;;;;16.66;55.71;99726.91;4888746;29;20056;-95
2022/10/26 00:11:53;;;;;;;4.30;2.03;;;;;;;16.66;55.65;99724.16;4906430;29;20055;-96
2022/10/26 00:14:19;;;;;;;3.28;1.90;;;;;;;16.54;56.27;99724.69;4895038;29;20031;-96
2022/10/26 00:16:45;;;;;;;3.58;2.20;;;;;;;16.65;56.28;99728.00;4874297;29;20032;-95
2022/10/26 00:19:11;;;;;;;4.72;2.50;;;;;;;16.54;56.17;99704.84;4905973;29;20050;-95
2022/10/26 00:21:37;;;;;;;2.90;1.85;;;;;;;16.57;55.63;99706.97;4908025;29;20186;-95
2022/10/26 00:24:03;;;;;;;3.08;2.00;;;;;;;16.46;56.02;99698.19;4919747;29;20040;-95
2022/10/26 00:26:31;;;;;;;4.40;1.98;;;;;;;16.32;56.44;99692.72;4904418;29;20032;-95
2022/10/26 00:28:57;;;;;;;6.95;2.45;;;;;;;16.28;56.67;99712.63;4902860;29;20039;-95
2022/10/26 00:31:22;;;;;;;6.72;2.63;;;;;;;16.10;57.12;99693.38;4905018;29;20031;-94
2022/10/26 00:33:52;;;;;;;3.42;2.08;;;;;;;16.10;57.44;99706.97;4904477;29;20035;-95
2022/10/26 00:36:18;;;;;;;2.78;1.83;;;;;;;16.16;56.94;99716.66;4887724;29;20047;-95
2022/10/26 00:38:55;;;;;;;1.98;1.40;;;;;;;16.20;56.00;99722.25;4888430;29;20039;-95
2022/10/26 00:41:25;;;;;;;2.42;1.63;;;;;;;16.13;56.20;99714.50;4925808;29;20038;-96
2022/10/26 00:43:51;;;;;;;2.65;1.60;;;;;;;16.17;56.12;99722.88;4911160;29;20023;-95
2022/10/26 00:46:42;;;;;;;5.43;1.83;;;;;;;16.09;56.24;99710.75;4898951;29;20020;-95
2022/10/26 00:49:13;;;;;;;7.07;1.92;;;;;;;16.11;56.89;99716.72;4865243;29;20131;-95
2022/10/26 00:51:45;;;;;;;3.47;1.60;;;;;;;16.16;56.86;99737.56;4866284;29;20539;-95
2022/10/26 00:54:12;;;;;;;;;;;;;;;16.08;57.44;99743.66;4862260;29;20492;-95
2022/10/26 00:56:39;;;;;;;4.47;1.88;;;;;;;16.05;57.42;99730.69;4871054;29;19943;-94
2022/10/26 00:59:07;;;;;;;8.68;2.22;;;;;;;15.94;57.22;99717.25;4865978;29;20041;-95
2022/10/26 01:01:34;;;;;;;3.20;1.85;;;;;;;15.94;57.57;99713.75;4851787;29;20040;-95
2022/10/26 01:04:03;;;;;;;6.65;2.00;;;;;;;15.92;57.87;99719.47;4835307;29;20078;-95
2022/10/26 01:06:29;;;;;;;3.67;2.10;;;;;;;15.89;57.72;99721.94;4851060;29;20064;-95
2022/10/26 01:08:54;;;;;;;4.38;1.90;;;;;;;15.80;58.11;99712.88;4849926;29;20435;-95
2022/10/26 01:11:20;;;;;;;3.53;1.80;;;;;;;15.67;58.16;99698.91;4849889;29;20157;-94
2022/10/26 01:13:47;;;;;;;5.22;2.10;;;;;;;15.73;58.60;99716.75;4865834;29;20115;-95
2022/10/26 01:16:33;;;;;;;3.40;1.88;;;;;;;15.75;58.52;99732.78;4849737;29;20033;-94
2022/10/26 01:19:36;;;;;;;5.82;2.20;;;;;;;15.70;58.80;99730.06;4868365;29;20025;-94
2022/10/26 01:22:05;;;;;;;3.58;1.80;;;;;;;15.56;58.84;99719.97;4921912;29;20115;-95
2022/10/26 01:25:11;;;;;;;2.45;1.67;;;;;;;15.57;59.12;99734.34;4903502;29;20188;-95
2022/10/26 01:27:37;;;;;;;3.38;1.80;;;;;;;15.51;59.24;99738.22;4926449;29;20043;-95
2022/10/26 01:30:14;;;;;;;3.53;2.00;;;;;;;15.43;59.52;99739.66;4919826;29;20036;-95
2022/10/26 01:33:06;;;;;;;3.13;2.00;;;;;;;15.23;60.30;99748.06;4919192;29;20403;-95
2022/10/26 01:35:31;;;;;;;3.03;1.80;;;;;;;15.14;60.33;99746.00;4920746;29;20055;-96
2022/10/26 01:38:21;;;;;;;2.75;1.90;;;;;;;15.02;60.34;99728.50;4919439;29;20036;-96
2022/10/26 01:41:13;;;;;;;5.72;2.03;;;;;;;15.20;60.13;99748.66;4890057;29;20034;-95
2022/10/26 01:43:45;;;;;;;5.00;1.80;;;;;;;15.17;59.79;99741.91;4889098;29;20036;-94
2022/10/26 01:46:14;;;;;;;4.55;2.70;;;;;;;15.08;60.01;99724.66;4902899;29;20031;-94
2022/10/26 01:48:45;;;;;;;4.90;2.05;;;;;;;15.15;60.06;99746.81;4887042;29;20028;-95
2022/10/26 01:51:11;;;;;;;2.63;1.90;;;;;;;15.08;59.16;99736.28;4887333;29;20028;-95
2022/10/26 01:53:44;;;;;;;3.80;2.10;;;;;;;15.20;58.31;99751.38;4886945;29;20123;-95
2022/10/26 01:56:18;;;;;;;5.25;1.83;;;;;;;15.19;58.17;99731.59;4887498;29;20087;-95
2022/10/26 01:59:09;;;;;;;2.63;1.60;;;;;;;15.20;58.42;99722.31;4888703;29;20036;-94
2022/10/26 02:02:13;;;;;;;4.03;1.80;;;;;;;15.37;58.04;99759.81;4890353;29;20048;-96
2022/10/26 02:05:15;;;;;;;3.75;1.70;;;;;;;15.32;58.69;99757.19;4918571;29;20136;-95
2022/10/26 02:07:47;;;;;;;2.92;1.80;;;;;;;15.34;58.61;99760.41;4919442;29;20040;-96
2022/10/26 02:10:33;;;;;;;2.28;1.33;;;;;;;15.24;58.70;99739.63;4919596;29;20064;-96
2022/10/26 02:13:13;;;;;;;4.57;1.70;;;;;;;15.31;58.51;99758.28;4887125;29;20119;-94
2022/10/26 02:15:56;;;;;;;5.95;1.90;;;;;;;15.29;58.85;99768.59;4893819;29;20028;-93
2022/10/26 02:18:49;;;;;;;2.83;1.60;;;;;;;15.23;59.08;99759.75;4901057;29;20099;-96
2022/10/26 02:21:20;;;;;;;3.45;1.77;;;;;;;15.17;59.33;99760.91;4863588;29;20468;-93
2022/10/26 02:23:48;;;;;;;7.78;1.88;;;;;;;15.13;59.52;99766.09;4833116;29;20045;-95
2022/10/26 02:26:15;;;;;;;5.50;2.10;;;;;;;15.12;59.54;99774.50;4870696;29;20051;-94
2022/10/26 02:28:43;;;;;;;4.40;2.05;;;;;;;15.01;59.84;99757.53;4855299;29;20207;-94
2022/10/26 02:31:09;;;;;;;2.50;1.90;;;;;;;14.99;59.81;99753.50;4845921;29;20099;-94
2022/10/26 02:33:37;;;;;;;3.67;2.00;;;;;;;15.02;60.05;99759.16;4866157;29;20036;-93
2022/10/26 02:36:05;;;;;;;3.08;1.95;;;;;;;14.93;60.22;99750.84;4866382;29;20040;-93
2022/10/26 02:38:34;;;;;;;4.03;2.13;;;;;;;14.76;60.37;99734.22;4865502;29;20423;-95
2022/10/26 02:41:00;;;;;;;3.42;2.10;;;;;;;14.82;60.36;99751.25;4852277;29;20075;-95
2022/10/26 02:43:25;;;;;;;2.72;1.77;;;;;;;14.83;60.54;99758.28;4866519;29;20047;-95
2022/10/26 02:45:53;;;;;;;4.38;2.15;;;;;;;14.83;60.50;99750.16;4850486;29;20037;-95
2022/10/26 02:48:20;;;;;;;9.07;3.33;;;;;;;14.67;60.63;99736.75;4882780;29;20167;-96
2022/10/26 02:51:06;;;;;;;4.45;2.10;;;;;;;14.83;60.63;99769.94;4866629;29;20037;-93
2022/10/26 02:54:05;;;;;;;7.80;2.80;;;;;;;14.72;60.71;99758.38;4920262;29;20039;-96
2022/10/26 02:56:35;;;;;;;6.20;3.00;;;;;;;14.52;61.02;99739.56;4856588;29;20041;-95
2022/10/26 02:59:03;;;;;;;5.22;2.85;;;;;;;14.55;61.20;99752.56;4902108;29;20040;-96
2022/10/26 03:01:29;;;;;;;6.13;2.70;;;;;;;14.59;61.36;99769.91;4903438;29;20046;-95
2022/10/26 03:03:59;;;;;;;3.20;2.03;;;;;;;14.35;62.04;99776.03;4902360;29;20477;-94
2022/10/26 03:06:25;;;;;;;10.68;3.50;;;;;;;14.34;62.10;99777.13;4917821;29;20091;-93
2022/10/26 03:08:54;;;;;;;5.72;2.80;;;;;;;14.29;62.34;99762.81;4902071;29;20058;-93
2022/10/26 03:11:21;;;;;;;4.43;2.55;;;;;;;14.25;62.83;99792.34;4901642;29;20067;-96
2022/10/26 03:13:47;;;;;;;4.60;2.75;;;;;;;14.12;63.02;99785.69;4917368;29;20459;-92
2022/10/26 03:16:15;;;;;;;5.80;2.58;;;;;;;14.14;62.84;99785.41;4913057;29;20038;-96
2022/10/26 03:18:42;;;;;;;9.57;2.58;;;;;;;14.20;62.63;99799.72;4891382;29;20135;-96
2022/10/26 03:21:10;;;;;;;3.97;2.10;;;;;;;14.07;62.91;99785.72;4901430;29;20098;-95
2022/10/26 03:23:36;;;;;;;6.53;2.65;;;;;;;14.07;62.97;99785.72;4886108;29;20492;-94
2022/10/26 03:26:03;;;;;;;4.93;2.63;;;;;;;14.01;62.79;99783.31;4870529;29;20031;-94
2022/10/26 03:28:29;;;;;;;8.82;3.20;;;;;;;14.05;63.10;99796.03;4885826;29;20439;-94
2022/10/26 03:30:55;;;;;;;4.72;2.38;;;;;;;14.04;63.27;99790.88;4901408;29;20028;-94
2022/10/26 03:33:21;;;;;;;6.35;2.85;;;;;;;14.07;63.12;99799.28;4885304;29;20024;-92
2022/10/26 03:35:53;;;;;;;5.93;2.42;;;;;;;14.00;63.67;99792.53;4886308;29;20024;-94
2022/10/26 03:38:21;;;;;;;6.88;2.78;;;;;;;13.88;63.59;99791.00;4886196;29;20514;-94
2022/10/26 03:40:47;;;;;;;9.30;3.30;;;;;;;13.82;63.83;99794.00;4900770;29;20487;-94
2022/10/26 03:43:14;;;;;;;5.85;2.50;;;;;;;13.81;63.86;99795.09;4887357;29;20032;-94
2022/10/26 03:45:51;;;;;;;7.25;3.50;;;;;;;13.59;65.27;99787.34;4889307;29;20060;-94
2022/10/26 03:48:17;;;;;;;5.18;2.92;;;;;;;13.39;65.88;99789.06;4875565;29;20032;-94
2022/10/26 03:50:43;;;;;;;3.28;2.45;;;;;;;13.31;65.61;99790.44;4905377;29;20036;-94
2022/10/26 03:53:08;;;;;;;5.07;2.75;;;;;;;13.37;66.28;99822.91;4889064;29;20040;-94
2022/10/26 03:55:34;;;;;;;8.30;2.97;;;;;;;13.09;66.74;99796.19;4873718;29;20032;-94
2022/10/26 03:58:00;;;;;;;6.30;2.35;;;;;;;13.13;66.21;99797.22;4890081;29;20032;-95
2022/10/26 04:00:28;;;;;;;5.68;2.97;;;;;;;13.21;65.98;99800.47;4904332;29;20052;-94
2022/10/26 04:02:59;;;;;;;5.53;2.17;;;;;;;13.44;65.75;99824.19;4903755;29;20055;-93
2022/10/26 04:05:31;;;;;;;11.35;3.20;;;;;;;13.44;65.41;99812.56;4904519;29;20043;-94
2022/10/26 04:08:01;;;;;;;6.55;2.67;;;;;;;13.41;65.78;99808.53;4889146;29;20048;-94
2022/10/26 04:10:28;;;;;;;8.27;3.17;;;;;;;13.41;65.52;99811.25;4901869;29;20575;-94
2022/10/26 04:12:53;;;;;;;6.05;3.13;;;;;;;13.30;65.72;99802.34;4885549;29;20033;-94
2022/10/26 04:15:19;;;;;;;14.55;4.25;;;;;;;13.38;65.56;99808.28;4854307;29;20427;-93
2022/10/26 04:17:45;;;;;;;7.95;3.83;;;;;;;13.37;65.67;99812.88;4885791;29;20037;-94
2022/10/26 04:20:13;;;;;;;6.30;3.45;;;;;;;13.38;65.57;99809.06;4870847;29;20036;-96
2022/10/26 04:22:39;;;;;;;83.60;39.53;;;;;;;13.37;65.41;99812.88;4856394;29;20096;-94
2022/10/26 04:25:07;;;;;;;14.57;5.70;;;;;;;13.17;66.17;99799.38;4870996;29;20511;-95
2022/10/26 04:27:34;;;;;;;9.60;4.57;;;;;;;13.07;67.28;99813.72;4903207;29;20034;-94
2022/10/26 04:30:04;;;;;;;9.65;5.10;;;;;;;12.90;67.08;99809.44;4870170;29;20016;-95
2022/10/26 04:32:31;;;;;;;8.95;4.03;;;;;;;12.97;67.05;99848.91;4900171;29;20032;-94
2022/10/26 04:34:57;;;;;;;7.63;4.30;;;;;;;12.71;67.46;99820.00;4882978;29;20029;-94
2022/10/26 04:37:24;;;;;;;10.65;4.25;;;;;;;12.89;67.33;99847.56;4874276;29;20036;-96
2022/10/26 04:39:52;;;;;;;7.63;4.13;;;;;;;12.95;67.27;99857.28;4889196;29;20036;-96
2022/10/26 04:42:19;;;;;;;9.18;4.32;;;;;;;12.83;67.25;99830.53;4880051;29;20035;-96
2022/10/26 04:44:48;;;;;;;10.88;4.40;;;;;;;13.04;67.17;99855.66;4877547;29;20052;-96
2022/10/26 04:47:35;;;;;;;9.13;4.38;;;;;;;12.91;67.15;99838.09;4874534;29;20072;-96
2022/10/26 04:50:02;;;;;;;18.17;7.55;;;;;;;13.03;67.33;99845.09;4860973;29;20041;-96
2022/10/26 04:52:39;;;;;;;9.95;5.03;;;;;;;13.09;66.67;99828.63;4871407;29;20071;-95
2022/10/26 04:55:09;;;;;;;11.32;4.25;;;;;;;13.08;66.23;99821.56;4890609;29;20112;-92
2022/10/26 04:57:38;;;;;;;6.85;4.40;;;;;;;13.19;66.21;99840.47;4859265;29;20055;-95
2022/10/26 05:00:04;;;;;;;9.65;6.07;;;;;;;13.21;66.89;99857.25;4873658;29;20033;-95
2022/10/26 05:02:33;;;;;;;12.90;4.80;;;;;;;12.93;66.59;99848.66;4840859;29;20041;-94
2022/10/26 05:04:59;;;;;;;6.95;4.25;;;;;;;12.97;66.76;99890.28;4883433;29;20065;-96
2022/10/26 05:07:26;;;;;;;8.68;3.55;;;;;;;12.67;67.39;99864.84;4854324;29;20071;-94
2022/10/26 05:09:54;;;;;;;6.40;3.47;;;;;;;12.72;67.67;99881.09;4869319;29;20055;-94
2022/10/26 05:12:23;;;;;;;5.55;3.67;;;;;;;12.72;67.47;99872.16;4872548;29;20171;-95
2022/10/26 05:15:00;;;;;;;6.07;3.65;;;;;;;12.62;67.75;99862.16;4891426;29;20040;-95
2022/10/26 05:17:26;;;;;;;12.43;4.00;;;;;;;12.41;68.38;99849.72;4921579;29;20099;-95
2022/10/26 05:19:54;;;;;;;7.25;3.72;;;;;;;12.43;68.69;99864.59;4908604;29;20050;-93
2022/10/26 05:22:31;;;;;;;11.30;4.40;;;;;;;12.49;69.01;99876.19;4908216;29;20502;-96
2022/10/26 05:25:00;;;;;;;10.70;5.07;;;;;;;12.60;68.66;99875.13;4907377;29;20040;-94
2022/10/26 05:27:27;;;;;;;10.63;4.72;;;;;;;12.58;68.76;99869.19;4929740;29;20028;-93
2022/10/26 05:30:04;;;;;;;10.93;5.35;;;;;;;12.63;69.03;99866.47;4913094;29;20032;-96
2022/10/26 05:32:39;;;;;;;12.30;4.75;;;;;;;12.73;68.19;99876.47;4899395;29;20448;-96
2022/10/26 05:35:05;;;;;;;13.05;5.00;;;;;;;12.67;68.71;99880.25;4927764;29;20172;-94
2022/10/26 05:37:35;;;;;;;8.35;5.00;;;;;;;12.82;68.59;99906.47;4911113;29;20024;-95
2022/10/26 05:40:00;;;;;;;16.67;5.40;;;;;;;12.64;68.30;99883.53;4925544;29;20092;-95
2022/10/26 05:42:53;;;;;;;10.63;4.40;;;;;;;12.89;68.28;99909.72;4912340;29;20044;-94
2022/10/26 05:45:22;;;;;;;14.90;4.75;;;;;;;12.92;68.30;99901.88;4896924;29;20042;-94
2022/10/26 05:48:01;;;;;;;6.82;4.70;;;;;;;12.96;67.83;99898.66;4912223;29;20091;-95
2022/10/26 05:50:27;;;;;;;13.38;5.28;;;;;;;12.92;68.33;99901.06;4927780;29;20040;-96
2022/10/26 05:52:54;;;;;;;18.88;6.30;;;;;;;13.06;68.20;99906.75;4914238;29;20036;-95
2022/10/26 05:55:20;;;;;;;18.58;8.20;;;;;;;13.10;67.34;99916.75;4897167;29;20127;-93
2022/10/26 05:57:53;;;;;;;7.45;5.05;;;;;;;13.03;67.36;99889.19;4920305;29;20063;-95
2022/10/26 06:00:21;;;;;;;9.45;5.85;;;;;;;13.23;67.25;99915.38;4896275;29;20032;-94
2022/10/26 06:03:24;;;;;;;11.80;5.40;;;;;;;13.36;66.84;99930.25;4876102;29;20063;-96
2022/10/26 06:05:52;;;;;;;9.45;4.97;;;;;;;13.33;66.37;99901.88;4924425;29;20036;-92
2022/10/26 06:08:18;;;;;;;13.77;5.72;;;;;;;13.34;66.38;99894.56;4921611;29;20398;-93
2022/10/26 06:10:47;;;;;;;17.50;5.57;;;;;;;13.54;66.20;99916.16;4896480;29;20032;-93
2022/10/26 06:13:12;;;;;;;20.20;13.50;;;;;;;13.45;66.09;99898.88;4902922;29;20054;-92
2022/10/26 06:16:17;;;;;;;18.15;6.57;;;;;;;13.66;66.00;99909.63;4905833;29;20091;-95
2022/10/26 06:19:04;;;;;;;17.85;6.93;;;;;;;13.90;66.00;99932.28;4913044;29;20044;-96
2022/10/26 06:21:59;;;;;;;16.05;7.75;;;;;;;13.77;65.45;99900.38;4939040;29;20562;-95
2022/10/26 06:24:54;;;;;;;19.02;5.72;;;;;;;13.95;65.02;99923.34;4893464;29;20030;-95
2022/10/26 06:28:00;;;;;;;10.00;5.40;;;;;;;14.00;65.06;99946.88;4920190;29;20037;-92
2022/10/26 06:30:25;;;;;;;13.63;5.82;;;;;;;14.02;64.24;99918.41;4937242;29;20524;-91
2022/10/26 06:32:55;;;;;;;15.18;5.82;;;;;;;14.02;64.08;99909.50;4919777;29;20024;-92
2022/10/26 06:35:52;;;;;;;;;;;;;;;;;;;;;
2022/10/26 06:38:19;;;;;;;8.73;4.90;;;;;;;14.34;63.13;99922.59;4930242;29;20046;-92
2022/10/26 06:40:50;;;;;;;9.30;5.63;;;;;;;14.52;63.23;99931.97;4892845;29;20043;-91
2022/10/26 06:46:36;;;;;;;11.65;6.10;;;;;;;14.78;63.11;99939.97;4964439;23;20131;-91
2022/10/26 06:49:14;;;;;;;10.75;5.65;;;;;;;14.90;62.86;99945.81;4921945;29;20495;-94
2022/10/26 06:52:29;;;;;;;15.15;6.70;;;;;;;14.83;62.75;99910.91;4914216;29;20016;-91
2022/10/26 06:55:11;;;;;;;16.23;7.28;;;;;;;15.26;61.82;99953.69;4932538;29;20031;-96
2022/10/26 06:57:40;;;;;;;12.02;5.78;;;;;;;15.30;61.60;99936.53;4900918;29;20462;-93
2022/10/26 07:00:24;;;;;;;14.82;5.60;;;;;;;15.59;60.83;99956.63;4905187;29;20039;-95
2022/10/26 07:03:02;;;;;;;9.32;4.78;;;;;;;15.72;60.46;99955.97;4952735;29;20105;-96
2022/10/26 07:05:42;;;;;;;8.40;4.75;;;;;;;15.72;60.23;99936.97;4934162;29;20039;-96
2022/10/26 07:08:18;;;;;;;13.30;4.57;;;;;;;15.81;59.24;99934.41;4922819;29;20031;-96
2022/10/26 07:10:48;;;;;;;10.73;5.38;;;;;;;15.93;59.01;99923.94;4934614;29;20047;-93
2022/10/26 07:13:16;;;;;;;8.60;5.47;;;;;;;16.21;58.38;99949.41;4926900;29;20034;-93
2022/10/26 07:16:21;;;;;;;9.80;4.50;;;;;;;16.31;57.46;99946.56;4928209;29;20039;-96
2022/10/26 07:19:03;;;;;;;6.15;3.08;;;;;;;16.32;56.54;99920.19;4946306;29;20484;-96
2022/10/26 07:21:34;;;;;;;7.07;3.97;;;;;;;16.53;56.69;99934.28;4926388;29;20435;-92
2022/10/26 07:23:59;;;;;;;4.43;2.90;;;;;;;16.53;55.59;99912.53;4928766;29;20426;-94
2022/10/26 07:26:28;;;;;;;5.68;2.30;;;;;;;16.72;55.23;99920.69;4924898;29;20044;-96
2022/10/26 07:31:43;;;;;;;10.40;4.40;;;;;;;16.98;55.27;99915.69;4982500;23;20064;-96
2022/10/26 07:34:19;;;;;;;5.30;2.97;;;;;;;17.12;54.23;99919.25;4901006;29;20046;-93
2022/10/26 07:36:50;;;;;;;6.07;3.05;;;;;;;17.24;53.87;99924.19;4900255;29;20040;-96
2022/10/26 07:39:16;;;;;;;6.47;4.30;;;;;;;17.25;53.94;99914.94;4916155;29;20094;-96
2022/10/26 07:41:45;;;;;;;6.32;2.70;;;;;;;17.46;53.88;99922.75;4882260;29;20499;-96
2022/10/26 07:44:13;;;;;;;5.32;2.50;;;;;;;17.50;53.43;99915.59;4899281;28;20032;-95
2022/10/26 07:46:39;;;;;;;4.72;2.08;;;;;;;17.61;52.86;99919.72;4908542;28;20032;-96
2022/10/26 07:49:05;;;;;;;6.15;2.67;;;;;;;17.73;52.22;99928.19;4930334;29;20050;-94
2022/10/26 07:51:47;;;;;;;8.88;4.43;;;;;;;17.84;52.32;99942.44;4875241;29;20123;-95
2022/10/26 07:54:15;;;;;;;8.55;4.00;;;;;;;17.79;54.26;99918.00;4868597;29;20479;-96
2022/10/26 07:57:13;;;;;;;14.13;6.68;;;;;;;17.91;52.63;99914.81;4870140;29;20187;-96
2022/10/26 07:59:47;;;;;;;5.43;2.13;;;;;;;18.06;51.31;99935.50;4874801;29;20037;-96
2022/10/26 08:02:20;;;;;;;3.25;2.00;;;;;;;18.10;50.55;99922.88;4871796;29;20101;-96
2022/10/26 08:05:04;;;;;;;3.33;1.65;;;;;;;18.23;50.66;99943.84;4878780;29;20504;-92
2022/10/26 08:07:29;;;;;;;3.38;1.50;;;;;;;18.26;50.37;99939.69;4859906;29;20040;-93
2022/10/26 08:09:55;;;;;;;2.85;1.58;;;;;;;18.29;50.32;99939.09;4865254;29;20041;-95
2022/10/26 08:12:28;;;;;;;2.78;1.58;;;;;;;18.31;49.52;99923.22;4848026;29;20041;-96
2022/10/26 08:14:54;;;;;;;3.22;1.85;;;;;;;18.35;49.88;99918.78;4877349;29;20032;-96
2022/10/26 08:17:20;;;;;;;2.42;1.27;;;;;;;18.33;49.53;99905.44;4893483;29;20048;-95
2022/10/26 08:19:48;;;;;;;3.42;1.50;;;;;;;18.55;49.13;99929.22;4896732;29;20660;-94
2022/10/26 08:22:14;;;;;;;2.70;1.40;;;;;;;18.61;48.53;99926.38;4883113;29;20484;-93
2022/10/26 08:24:41;;;;;;;6.80;1.17;;;;;;;18.69;48.13;99928.34;4882360;29;20054;-93
2022/10/26 08:27:10;;;;;;;3.80;1.55;;;;;;;18.67;48.16;99909.56;4866627;29;20040;-93
2022/10/26 08:29:35;;;;;;;3.08;1.52;;;;;;;18.69;47.79;99915.53;4869703;29;20112;-94
2022/10/26 08:32:03;;;;;;;2.08;1.40;;;;;;;18.83;47.44;99918.22;4869409;29;20049;-95
2022/10/26 08:34:29;;;;;;;3.05;1.45;;;;;;;18.90;47.51;99912.31;4894356;29;20036;-95
2022/10/26 08:37:03;;;;;;;4.38;1.70;;;;;;;18.96;47.81;99925.53;4886815;29;20028;-94
2022/10/26 08:39:29;;;;;;;1.60;1.10;;;;;;;19.05;46.82;99924.78;4912343;29;20053;-94
2022/10/26 08:42:21;;;;;;;2.67;1.50;;;;;;;19.10;46.93;99921.94;4899548;29;20036;-94
2022/10/26 08:44:51;;;;;;;2.63;1.25;;;;;;;19.16;46.10;99931.63;4862506;29;20510;-94
2022/10/26 08:47:21;;;;;;;4.40;1.42;;;;;;;19.32;46.07;99938.28;4884614;29;20036;-96
2022/10/26 08:50:04;;;;;;;3.70;1.30;;;;;;;19.36;46.28;99933.81;4932215;29;20095;-96
2022/10/26 08:52:52;;;;;;;2.25;1.23;;;;;;;19.33;45.84;99925.44;4911695;29;20039;-96
2022/10/26 08:55:20;;;;;;;3.33;1.45;;;;;;;19.39;45.85;99921.47;4905456;29;20028;-95
2022/10/26 08:58:09;;;;;;;3.63;1.38;;;;;;;19.35;45.51;99925.94;4896102;29;20110;-96
2022/10/26 09:00:37;;;;;;;2.90;1.65;;;;;;;19.47;45.61;99934.34;4907285;29;20496;-96
2022/10/26 09:03:35;;;;;;;3.70;1.40;;;;;;;19.45;45.65;99922.94;4929257;29;20055;-96
2022/10/26 09:09:58;;;;;;;2.33;1.50;;;;;;;19.74;45.20;99940.75;4908128;29;20126;-94
2022/10/26 09:13:11;;;;;;;;;;;;;;;;;;;;;
2022/10/26 09:16:15;;;;;;;2.17;1.23;;;;;;;19.71;44.98;99952.31;4928659;29;20119;-96
2022/10/26 09:19:11;;;;;;;2.70;1.17;;;;;;;19.63;44.85;99918.34;4893982;29;20819;-96
2022/10/26 09:22:16;;;;;;;4.50;1.98;;;;;;;19.68;44.79;99923.66;4883977;29;20040;-96
2022/10/26 09:25:12;;;;;;;5.82;3.75;;;;;;;19.71;44.35;99917.59;4888879;29;20153;-96
2022/10/26 09:27:43;;;;;;;3.58;1.45;;;;;;;19.91;44.11;99948.22;4887545;29;20040;-95
2022/10/26 09:30:16;;;;;;;10.93;6.07;;;;;;;19.80;44.40;99917.63;4885920;29;20139;-94
2022/10/26 09:33:26;;;;;;;7.10;2.30;;;;;;;19.89;43.92;99934.84;4872882;29;20663;-95
2022/10/26 09:36:09;;;;;;;5.50;1.48;;;;;;;19.93;43.02;99926.84;4901258;29;20127;-96
2022/10/26 09:38:38;;;;;;;2.60;2.00;;;;;;;19.85;43.45;99922.16;4867245;29;20557;-95
2022/10/26 09:41:28;;;;;;;3.55;1.42;;;;;;;20.08;43.38;99950.19;4886260;29;20040;-96
2022/10/26 09:49:05;;;;;;;4.10;1.38;;;;;;;20.05;42.84;99904.38;4907298;29;20048;-94
2022/10/26 09:51:37;;;;;;;2.75;1.30;;;;;;;20.04;42.75;99903.53;4880602;29;20040;-93
2022/10/26 09:54:14;;;;;;;2.00;1.30;;;;;;;20.14;42.91;99907.91;4892291;29;20033;-96
2022/10/26 09:57:13;;;;;;;3.05;1.30;;;;;;;20.16;42.50;99903.72;4877752;29;20416;-93
2022/10/26 09:59:51;;;;;;;6.07;1.20;;;;;;;20.28;42.30;99916.78;4909226;29;20037;-92
2022/10/26 10:02:38;;;;;;;1.98;1.33;;;;;;;20.44;42.91;99930.78;4867446;29;20035;-95
2022/10/26 10:05:32;;;;;;;1.70;1.13;;;;;;;20.31;41.50;99905.19;4887890;29;20036;-92
2022/10/26 10:08:13;;;;;;;3.25;1.33;;;;;;;20.39;41.88;99901.66;4867342;29;20047;-93
2022/10/26 10:11:01;;;;;;;6.82;2.42;;;;;;;20.48;42.30;99909.88;4879707;29;20036;-93
2022/10/26 10:13:31;;;;;;;2.92;1.27;;;;;;;20.48;41.96;99901.66;4870554;29;20057;-95
2022/10/26 10:21:16;;;;;;;4.07;1.42;;;;;;;20.56;42.35;99898.09;5429862;23;20056;-94
2022/10/26 10:23:57;;;;;;;3.33;1.50;;;;;;;20.58;41.21;99895.09;4915675;29;20036;-93
2022/10/26 10:26:22;;;;;;;54.60;23.25;;;;;;;20.58;41.21;99893.16;4906308;29;20023;-93
2022/10/26 10:29:02;;;;;;;7.47;4.18;;;;;;;20.53;41.09;99884.28;4896529;29;20020;-92
2022/10/26 10:31:30;;;;;;;2.33;1.42;;;;;;;20.56;41.52;99878.94;4871255;29;20035;-92
2022/10/26 10:33:55;;;;;;;4.85;2.22;;;;;;;20.61;42.19;99878.03;4884776;29;20024;-91
2022/10/26 10:36:28;;;;;;;4.38;1.92;;;;;;;20.71;42.26;99896.84;4870935;29;20059;-94
2022/10/26 10:39:25;;;;;;;3.58;1.48;;;;;;;20.70;41.74;99881.56;4897705;29;20060;-96
2022/10/26 10:41:53;;;;;;;1.67;1.15;;;;;;;20.85;41.29;99899.41;4856614;29;20050;-96
2022/10/26 10:44:45;;;;;;;2.85;1.33;;;;;;;20.75;40.53;99872.38;4856550;29;20057;-96
2022/10/26 10:47:37;;;;;;;3.92;1.45;;;;;;;20.89;40.49;99888.63;4881299;29;20064;-96
2022/10/26 10:50:30;;;;;;;2.60;1.33;;;;;;;20.89;40.48;99883.13;4901494;29;20395;-94
2022/10/26 10:53:45;;;;;;;3.15;1.63;;;;;;;20.95;39.88;99885.38;4945815;24;20063;-96
2022/10/26 11:10:00;;;;;;;;;;;;;;;;;;;;;
2022/10/26 11:12:57;;;;;;;;;;;;;;;21.12;38.45;99883.72;4913805;29;20092;-96
2022/10/26 11:39:00;;;;;;;2.58;1.35;;;;;;;21.35;37.69;99868.69;4922020;29;20434;-91
2022/10/26 11:41:32;;;;;;;3.88;1.17;;;;;;;21.39;36.78;99866.06;4918670;29;20126;-92
2022/10/26 11:44:06;;;;;;;3.33;1.70;;;;;;;21.43;36.57;99874.47;4914118;29;20043;-93
2022/10/26 11:47:07;;;;;;;1.95;0.90;;;;;;;21.43;36.10;99871.72;4921644;29;20036;-94
2022/10/26 11:49:54;;;;;;;1.77;1.17;;;;;;;21.43;35.88;99863.50;4894420;29;20040;-91
2022/10/26 11:52:42;;;;;;;3.92;1.30;;;;;;;21.44;36.07;99871.41;4927323;29;20032;-91
2022/10/26 11:55:09;;;;;;;3.40;1.60;;;;;;;21.34;35.47;99852.56;4890055;29;20495;-93
2022/10/26 11:57:38;;;;;;;1.88;1.10;;;;;;;21.32;34.85;99846.63;4886026;29;20036;-95
2022/10/26 12:00:16;;;;;;;2.45;1.10;;;;;;;21.27;35.55;99833.91;4882677;29;20443;-92
2022/10/26 12:02:44;;;;;;;2.95;1.02;;;;;;;21.37;35.18;99847.25;4891977;29;20103;-93
2022/10/26 12:06:04;;;;;;;2.25;1.05;;;;;;;21.47;34.62;99867.19;4896198;29;20024;-92
2022/10/26 12:08:37;;;;;;;1.60;0.88;;;;;;;21.44;35.01;99851.44;4849827;29;20065;-93
2022/10/26 12:11:12;;;;;;;3.50;1.15;;;;;;;21.31;34.85;99845.00;4881016;29;20463;-94
2022/10/26 12:13:44;;;;;;;5.43;2.10;;;;;;;21.31;34.84;99855.94;4892471;29;20032;-96
2022/10/26 12:16:17;;;;;;;;;;;;;;;21.44;35.12;99870.63;4892438;29;20039;-94
2022/10/26 12:19:12;;;;;;;2.13;0.90;;;;;;;21.27;34.59;99844.03;4911935;29;19918;-93
2022/10/26 12:21:47;;;;;;;;;;;;;;;;;;;;;
2022/10/26 12:24:25;;;;;;;3.00;1.13;;;;;;;21.48;34.76;99872.34;4898175;29;20038;-93
2022/10/26 12:27:00;;;;;;;1.70;0.98;;;;;;;21.30;34.68;99840.66;4933382;29;20043;-92
2022/10/26 12:29:59;;;;;;;2.65;1.20;;;;;;;21.47;35.33;99867.19;4903027;29;20040;-91
2022/10/26 12:32:46;;;;;;;4.18;1.10;;;;;;;21.29;35.35;99845.34;4872648;29;20510;-93
2022/10/26 12:35:35;;;;;;;3.42;1.10;;;;;;;21.42;35.15;99859.97;4914836;29;20027;-92
2022/10/26 12:38:40;;;;;;;6.03;1.90;;;;;;;21.44;35.40;99863.19;4886610;29;20531;-96
2022/10/26 12:41:46;;;;;;;;;;;;;;;;;;;;;
2022/10/26 12:44:58;;;;;;;6.72;4.90;;;;;;;21.45;34.13;99855.75;4901930;29;20114;-96
2022/10/26 12:47:29;;;;;;;2.78;1.10;;;;;;;21.55;34.29;99872.63;4905758;29;20383;-92
2022/10/26 12:50:08;;;;;;;1.33;0.90;;;;;;;21.53;34.20;99855.72;4919598;29;20558;-92
2022/10/26 12:52:49;;;;;;;3.33;1.25;;;;;;;21.51;35.01;99863.47;4930017;29;20380;-93
2022/10/26 12:55:27;;;;;;;5.40;2.70;;;;;;;21.53;34.67;99863.94;4912847;29;20032;-94
2022/10/26 12:58:18;;;;;;;2.30;1.52;;;;;;;21.39;35.47;99844.16;4923626;29;20047;-94
2022/10/26 13:00:48;;;;;;;2.85;1.45;;;;;;;21.39;34.50;99836.75;4906520;29;20095;-93
2022/10/26 13:03:26;;;;;;;7.05;1.83;;;;;;;21.59;34.90;99865.38;4905590;29;20573;-92
2022/10/26 13:06:08;;;;;;;3.03;1.40;;;;;;;21.62;35.09;99869.38;4921393;29;20120;-94
2022/10/26 13:08:41;;;;;;;3.72;1.60;;;;;;;21.48;34.99;99857.84;4936422;29;20028;-93
2022/10/26 13:11:40;;;;;;;2.40;1.23;;;;;;;21.38;35.08;99862.53;4890768;29;20383;-95
2022/10/26 13:14:26;;;;;;;2.55;1.30;;;;;;;21.40;35.88;99854.78;4907410;29;20028;-96
2022/10/26 13:17:04;;;;;;;;;;;;;;;;;;;;;
2022/10/26 13:37:00;;;;;;;6.03;2.10;;;;;;;21.28;35.50;99848.41;1081603;23;20023;31